sensor_id;sensor_type;location;lat;lon;timestamp;pressure;altitude;pressure_sealevel;temperature;humidity
77323;BME280;66384;51.052;9.850;2024-03-23T00:55:22;97771.02;;;9.15;75.59
77323;BME280;66384;51.052;9.850;2024-03-23T00:57:53;97759.64;;;9.12;75.82
77323;BME280;66384;51.052;9.850;2024-03-23T01:00:24;97753.27;;;9.09;75.93
77323;BME280;66384;51.052;9.850;2024-03-23T01:02:55;97752.17;;;9.05;75.96
77323;BME280;66384;51.052;9.850;2024-03-23T01:05:27;97745.09;;;9.02;76.14
77323;BME280;66384;51.052;9.850;2024-03-23T01:07:58;97747.27;;;8.99;76.38
77323;BME280;66384;51.052;9.850;2024-03-23T01:10:28;97749.31;;;8.98;76.69
77323;BME280;66384;51.052;9.850;2024-03-23T01:12:59;97742.79;;;8.98;76.65
77323;BME280;66384;51.052;9.850;2024-03-23T01:15:30;97729.73;;;8.98;76.67
77323;BME280;66384;51.052;9.850;2024-03-23T01:18:01;97721.17;;;8.98;76.82
77323;BME280;66384;51.052;9.850;2024-03-23T01:20:32;97724.97;;;8.99;76.82
77323;BME280;66384;51.052;9.850;2024-03-23T01:23:02;97724.48;;;9.02;77.01
77323;BME280;66384;51.052;9.850;2024-03-23T01:25:34;97723.49;;;9.03;76.90
77323;BME280;66384;51.052;9.850;2024-03-23T01:28:06;97714.58;;;9.03;77.10
77323;BME280;66384;51.052;9.850;2024-03-23T01:30:38;97707.55;;;9.03;77.22
77323;BME280;66384;51.052;9.850;2024-03-23T01:33:09;97693.64;;;9.03;77.38
77323;BME280;66384;51.052;9.850;2024-03-23T01:35:40;97695.92;;;9.06;77.62
77323;BME280;66384;51.052;9.850;2024-03-23T01:38:11;97697.14;;;9.07;77.75
77323;BME280;66384;51.052;9.850;2024-03-23T01:40:42;97694.23;;;9.07;77.82
77323;BME280;66384;51.052;9.850;2024-03-23T01:43:14;97693.55;;;9.08;77.96
77323;BME280;66384;51.052;9.850;2024-03-23T01:45:45;97682.90;;;9.07;78.21
77323;BME280;66384;51.052;9.850;2024-03-23T01:48:16;97675.02;;;9.07;78.17
77323;BME280;66384;51.052;9.850;2024-03-23T01:50:49;97673.81;;;9.07;78.42
77323;BME280;66384;51.052;9.850;2024-03-23T01:53:20;97668.52;;;9.08;78.66
77323;BME280;66384;51.052;9.850;2024-03-23T01:55:53;97666.65;;;9.10;78.65
77323;BME280;66384;51.052;9.850;2024-03-23T01:58:24;97664.60;;;9.10;78.63
77323;BME280;66384;51.052;9.850;2024-03-23T02:00:54;97661.01;;;9.11;78.83
77323;BME280;66384;51.052;9.850;2024-03-23T02:03:23;97659.14;;;9.13;78.87
77323;BME280;66384;51.052;9.850;2024-03-23T02:05:56;97652.31;;;9.14;78.81
77323;BME280;66384;51.052;9.850;2024-03-23T02:08:28;97643.75;;;9.16;79.08
77323;BME280;66384;51.052;9.850;2024-03-23T02:11:01;97638.27;;;9.17;78.88
77323;BME280;66384;51.052;9.850;2024-03-23T02:13:33;97626.80;;;9.18;78.95
77323;BME280;66384;51.052;9.850;2024-03-23T02:16:06;97625.94;;;9.17;78.89
77323;BME280;66384;51.052;9.850;2024-03-23T02:18:38;97633.46;;;9.16;78.76
77323;BME280;66384;51.052;9.850;2024-03-23T02:21:09;97624.88;;;9.16;78.99
77323;BME280;66384;51.052;9.850;2024-03-23T02:23:38;97615.45;;;9.17;79.12
77323;BME280;66384;51.052;9.850;2024-03-23T02:26:09;97617.19;;;9.17;79.03
77323;BME280;66384;51.052;9.850;2024-03-23T02:28:40;97618.58;;;9.18;79.06
77323;BME280;66384;51.052;9.850;2024-03-23T02:31:12;97616.70;;;9.19;79.19
77323;BME280;66384;51.052;9.850;2024-03-23T02:33:45;97621.70;;;9.21;79.10
77323;BME280;66384;51.052;9.850;2024-03-23T02:36:16;97617.41;;;9.22;79.02
77323;BME280;66384;51.052;9.850;2024-03-23T02:38:47;97621.21;;;9.23;79.15
77323;BME280;66384;51.052;9.850;2024-03-23T02:41:18;97616.06;;;9.24;79.03
77323;BME280;66384;51.052;9.850;2024-03-23T02:43:53;97604.40;;;9.23;79.02
77323;BME280;66384;51.052;9.850;2024-03-23T02:46:24;97604.23;;;9.24;79.13
77323;BME280;66384;51.052;9.850;2024-03-23T02:48:55;97607.66;;;9.24;79.29
77323;BME280;66384;51.052;9.850;2024-03-23T02:51:27;97605.13;;;9.26;79.14
77323;BME280;66384;51.052;9.850;2024-03-23T02:53:56;97605.48;;;9.26;79.03
77323;BME280;66384;51.052;9.850;2024-03-23T02:56:26;97601.70;;;9.26;79.32
77323;BME280;66384;51.052;9.850;2024-03-23T02:58:57;97592.94;;;9.25;79.31
77323;BME280;66384;51.052;9.850;2024-03-23T03:01:29;97588.63;;;9.24;79.54
77323;BME280;66384;51.052;9.850;2024-03-23T03:04:01;97586.02;;;9.23;79.44
77323;BME280;66384;51.052;9.850;2024-03-23T03:06:32;97579.33;;;9.22;79.53
77323;BME280;66384;51.052;9.850;2024-03-23T03:09:04;97574.02;;;9.22;79.53
77323;BME280;66384;51.052;9.850;2024-03-23T03:11:35;97579.34;;;9.22;79.39
77323;BME280;66384;51.052;9.850;2024-03-23T03:14:05;97570.76;;;9.22;79.09
77323;BME280;66384;51.052;9.850;2024-03-23T03:16:37;97570.61;;;9.24;78.78
77323;BME280;66384;51.052;9.850;2024-03-23T03:19:08;97570.83;;;9.26;78.69
77323;BME280;66384;51.052;9.850;2024-03-23T03:21:40;97563.63;;;9.28;78.33
77323;BME280;66384;51.052;9.850;2024-03-23T03:24:10;97551.66;;;9.30;78.08
77323;BME280;66384;51.052;9.850;2024-03-23T03:26:40;97543.61;;;9.32;78.10
77323;BME280;66384;51.052;9.850;2024-03-23T03:29:10;97546.73;;;9.34;77.88
77323;BME280;66384;51.052;9.850;2024-03-23T03:31:41;97552.08;;;9.37;77.64
77323;BME280;66384;51.052;9.850;2024-03-23T03:34:12;97548.48;;;9.37;77.27
77323;BME280;66384;51.052;9.850;2024-03-23T03:36:42;97539.23;;;9.39;77.08
77323;BME280;66384;51.052;9.850;2024-03-23T03:39:11;97533.24;;;9.40;77.03
77323;BME280;66384;51.052;9.850;2024-03-23T03:41:42;97527.92;;;9.40;76.97
77323;BME280;66384;51.052;9.850;2024-03-23T03:44:13;97524.14;;;9.39;76.78
77323;BME280;66384;51.052;9.850;2024-03-23T03:46:43;97513.13;;;9.37;76.89
77323;BME280;66384;51.052;9.850;2024-03-23T03:49:14;97510.55;;;9.35;76.91
77323;BME280;66384;51.052;9.850;2024-03-23T03:51:49;97508.62;;;9.33;76.97
77323;BME280;66384;51.052;9.850;2024-03-23T03:54:20;97500.02;;;9.31;76.79
77323;BME280;66384;51.052;9.850;2024-03-23T03:56:51;97482.14;;;9.28;77.12
77323;BME280;66384;51.052;9.850;2024-03-23T03:59:22;97483.46;;;9.24;77.13
77323;BME280;66384;51.052;9.850;2024-03-23T04:01:53;97485.81;;;9.20;77.17
77323;BME280;66384;51.052;9.850;2024-03-23T04:04:23;97484.56;;;9.16;77.39
77323;BME280;66384;51.052;9.850;2024-03-23T04:07:00;97489.32;;;9.11;77.37
77323;BME280;66384;51.052;9.850;2024-03-23T04:09:31;97493.73;;;9.07;77.28
77323;BME280;66384;51.052;9.850;2024-03-23T04:12:03;97486.95;;;9.01;77.03
77323;BME280;66384;51.052;9.850;2024-03-23T04:14:34;97489.44;;;8.94;77.50
77323;BME280;66384;51.052;9.850;2024-03-23T04:17:05;97489.35;;;8.88;77.47
77323;BME280;66384;51.052;9.850;2024-03-23T04:19:36;97493.36;;;8.80;77.37
77323;BME280;66384;51.052;9.850;2024-03-23T04:22:08;97496.49;;;8.71;77.67
77323;BME280;66384;51.052;9.850;2024-03-23T04:24:39;97492.10;;;8.62;77.48
77323;BME280;66384;51.052;9.850;2024-03-23T04:27:10;97484.42;;;8.54;77.43
77323;BME280;66384;51.052;9.850;2024-03-23T04:29:42;97476.58;;;8.44;77.61
77323;BME280;66384;51.052;9.850;2024-03-23T04:32:17;97466.81;;;8.35;77.75
77323;BME280;66384;51.052;9.850;2024-03-23T04:34:49;97463.12;;;8.29;78.12
77323;BME280;66384;51.052;9.850;2024-03-23T04:37:20;97463.59;;;8.26;78.41
77323;BME280;66384;51.052;9.850;2024-03-23T04:39:51;97463.04;;;8.24;78.65
77323;BME280;66384;51.052;9.850;2024-03-23T04:42:22;97464.23;;;8.24;78.88
77323;BME280;66384;51.052;9.850;2024-03-23T04:44:54;97458.93;;;8.24;78.77
77323;BME280;66384;51.052;9.850;2024-03-23T04:47:25;97462.68;;;8.23;78.26
77323;BME280;66384;51.052;9.850;2024-03-23T04:49:56;97459.02;;;8.19;78.20
77323;BME280;66384;51.052;9.850;2024-03-23T04:52:28;97455.41;;;8.16;78.29
77323;BME280;66384;51.052;9.850;2024-03-23T04:54:59;97458.98;;;8.16;78.68
77323;BME280;66384;51.052;9.850;2024-03-23T04:57:31;97470.62;;;8.15;78.77
77323;BME280;66384;51.052;9.850;2024-03-23T05:00:02;97482.88;;;8.10;78.82
77323;BME280;66384;51.052;9.850;2024-03-23T05:02:46;97479.90;;;8.07;79.13
77323;BME280;66384;51.052;9.850;2024-03-23T05:05:17;97472.86;;;8.05;79.30
77323;BME280;66384;51.052;9.850;2024-03-23T05:07:48;97463.40;;;8.03;79.02
77323;BME280;66384;51.052;9.850;2024-03-23T05:10:18;97463.68;;;7.99;78.42
77323;BME280;66384;51.052;9.850;2024-03-23T05:12:49;97470.63;;;7.95;78.14
77323;BME280;66384;51.052;9.850;2024-03-23T05:15:18;97476.23;;;7.92;78.01
77323;BME280;66384;51.052;9.850;2024-03-23T05:17:49;97472.34;;;7.85;78.18
77323;BME280;66384;51.052;9.850;2024-03-23T05:20:20;97476.18;;;7.79;78.08
77323;BME280;66384;51.052;9.850;2024-03-23T05:22:51;97482.85;;;7.69;78.20
77323;BME280;66384;51.052;9.850;2024-03-23T05:25:22;97489.00;;;7.59;78.10
77323;BME280;66384;51.052;9.850;2024-03-23T05:27:53;97499.74;;;7.48;77.75
77323;BME280;66384;51.052;9.850;2024-03-23T05:30:25;97504.82;;;7.36;77.75
77323;BME280;66384;51.052;9.850;2024-03-23T05:32:56;97507.66;;;7.24;77.05
77323;BME280;66384;51.052;9.850;2024-03-23T05:35:25;97517.66;;;7.11;77.11
77323;BME280;66384;51.052;9.850;2024-03-23T05:37:56;97520.83;;;6.99;76.96
77323;BME280;66384;51.052;9.850;2024-03-23T05:40:28;97525.95;;;6.91;77.25
77323;BME280;66384;51.052;9.850;2024-03-23T05:42:58;97528.38;;;6.85;77.03
77323;BME280;66384;51.052;9.850;2024-03-23T05:45:29;97530.44;;;6.77;76.81
77323;BME280;66384;51.052;9.850;2024-03-23T05:47:58;97536.48;;;6.73;77.15
77323;BME280;66384;51.052;9.850;2024-03-23T05:50:29;97539.13;;;6.69;77.14
77323;BME280;66384;51.052;9.850;2024-03-23T05:53:00;97544.60;;;6.62;77.04
77323;BME280;66384;51.052;9.850;2024-03-23T05:55:31;97552.85;;;6.56;76.88
77323;BME280;66384;51.052;9.850;2024-03-23T05:58:03;97556.33;;;6.52;77.15
77323;BME280;66384;51.052;9.850;2024-03-23T06:00:35;97560.59;;;6.51;76.76
77323;BME280;66384;51.052;9.850;2024-03-23T06:03:05;97563.88;;;6.46;76.33
77323;BME280;66384;51.052;9.850;2024-03-23T06:05:36;97558.42;;;6.40;76.41
77323;BME280;66384;51.052;9.850;2024-03-23T06:08:08;97561.33;;;6.32;75.97
77323;BME280;66384;51.052;9.850;2024-03-23T06:10:40;97563.55;;;6.25;75.77
77323;BME280;66384;51.052;9.850;2024-03-23T06:13:09;97573.64;;;6.19;75.73
77323;BME280;66384;51.052;9.850;2024-03-23T06:15:40;97580.84;;;6.14;76.10
77323;BME280;66384;51.052;9.850;2024-03-23T06:18:10;97584.67;;;6.09;75.94
77323;BME280;66384;51.052;9.850;2024-03-23T06:20:42;97587.65;;;6.07;75.59
77323;BME280;66384;51.052;9.850;2024-03-23T06:23:13;97594.20;;;6.02;75.91
77323;BME280;66384;51.052;9.850;2024-03-23T06:25:45;97602.48;;;6.00;76.37
77323;BME280;66384;51.052;9.850;2024-03-23T06:28:17;97614.34;;;5.96;76.51
77323;BME280;66384;51.052;9.850;2024-03-23T06:30:48;97620.67;;;5.85;76.30
77323;BME280;66384;51.052;9.850;2024-03-23T06:33:20;97624.90;;;5.78;76.29
77323;BME280;66384;51.052;9.850;2024-03-23T06:35:52;97625.02;;;5.70;76.09
77323;BME280;66384;51.052;9.850;2024-03-23T06:38:23;97623.35;;;5.65;76.25
77323;BME280;66384;51.052;9.850;2024-03-23T06:40:54;97619.67;;;5.61;76.48
77323;BME280;66384;51.052;9.850;2024-03-23T06:43:25;97623.71;;;5.54;76.43
77323;BME280;66384;51.052;9.850;2024-03-23T06:45:57;97632.98;;;5.49;76.78
77323;BME280;66384;51.052;9.850;2024-03-23T06:48:28;97633.92;;;5.47;76.98
77323;BME280;66384;51.052;9.850;2024-03-23T06:50:59;97643.69;;;5.48;76.94
77323;BME280;66384;51.052;9.850;2024-03-23T06:53:30;97653.45;;;5.50;77.13
77323;BME280;66384;51.052;9.850;2024-03-23T06:56:01;97656.05;;;5.51;76.95
77323;BME280;66384;51.052;9.850;2024-03-23T06:58:32;97657.48;;;5.47;77.08
77323;BME280;66384;51.052;9.850;2024-03-23T07:01:04;97657.62;;;5.46;76.73
77323;BME280;66384;51.052;9.850;2024-03-23T07:03:35;97662.04;;;5.46;77.18
77323;BME280;66384;51.052;9.850;2024-03-23T07:06:06;97663.33;;;5.49;77.42
77323;BME280;66384;51.052;9.850;2024-03-23T07:08:37;97664.34;;;5.55;77.40
77323;BME280;66384;51.052;9.850;2024-03-23T07:11:08;97654.78;;;5.54;77.04
77323;BME280;66384;51.052;9.850;2024-03-23T07:13:38;97658.10;;;5.52;76.79
77323;BME280;66384;51.052;9.850;2024-03-23T07:16:09;97671.15;;;5.48;76.75
77323;BME280;66384;51.052;9.850;2024-03-23T07:18:39;97685.23;;;5.45;77.11
77323;BME280;66384;51.052;9.850;2024-03-23T07:21:10;97687.52;;;5.43;77.20
77323;BME280;66384;51.052;9.850;2024-03-23T07:23:44;97691.71;;;5.40;77.22
77323;BME280;66384;51.052;9.850;2024-03-23T07:26:15;97691.23;;;5.41;77.17
77323;BME280;66384;51.052;9.850;2024-03-23T07:28:47;97685.80;;;5.42;76.99
77323;BME280;66384;51.052;9.850;2024-03-23T07:31:19;97690.80;;;5.44;77.28
77323;BME280;66384;51.052;9.850;2024-03-23T07:33:51;97698.95;;;5.48;77.49
77323;BME280;66384;51.052;9.850;2024-03-23T07:36:22;97699.60;;;5.54;77.43
77323;BME280;66384;51.052;9.850;2024-03-23T07:38:53;97695.50;;;5.59;77.50
77323;BME280;66384;51.052;9.850;2024-03-23T07:41:45;97708.22;;;5.62;77.25
77323;BME280;66384;51.052;9.850;2024-03-23T07:44:16;97716.36;;;5.61;76.91
77323;BME280;66384;51.052;9.850;2024-03-23T07:46:47;97714.73;;;5.63;77.09
77323;BME280;66384;51.052;9.850;2024-03-23T07:49:17;97712.22;;;5.65;76.93
77323;BME280;66384;51.052;9.850;2024-03-23T07:51:48;97712.09;;;5.66;76.69
77323;BME280;66384;51.052;9.850;2024-03-23T07:54:17;97715.17;;;5.67;76.99
77323;BME280;66384;51.052;9.850;2024-03-23T07:56:49;97724.00;;;5.65;76.73
77323;BME280;66384;51.052;9.850;2024-03-23T07:59:19;97720.05;;;5.64;76.99
77323;BME280;66384;51.052;9.850;2024-03-23T08:01:48;97721.63;;;5.65;77.15
77323;BME280;66384;51.052;9.850;2024-03-23T08:04:20;97734.95;;;5.66;77.40
77323;BME280;66384;51.052;9.850;2024-03-23T08:06:51;97738.93;;;5.68;77.38
77323;BME280;66384;51.052;9.850;2024-03-23T08:09:23;97740.58;;;5.66;77.03
77323;BME280;66384;51.052;9.850;2024-03-23T08:11:53;97741.93;;;5.66;77.05
77323;BME280;66384;51.052;9.850;2024-03-23T08:14:23;97743.31;;;5.66;76.79
77323;BME280;66384;51.052;9.850;2024-03-23T08:16:55;97744.05;;;5.68;77.07
77323;BME280;66384;51.052;9.850;2024-03-23T08:19:26;97752.52;;;5.72;77.04
77323;BME280;66384;51.052;9.850;2024-03-23T08:21:58;97760.80;;;5.75;76.69
77323;BME280;66384;51.052;9.850;2024-03-23T08:24:29;97769.05;;;5.77;76.87
77323;BME280;66384;51.052;9.850;2024-03-23T08:27:00;97776.82;;;5.80;76.92
77323;BME280;66384;51.052;9.850;2024-03-23T08:29:31;97781.52;;;5.83;76.92
77323;BME280;66384;51.052;9.850;2024-03-23T08:32:03;97779.69;;;5.85;76.79
77323;BME280;66384;51.052;9.850;2024-03-23T08:34:34;97776.02;;;5.88;76.68
77323;BME280;66384;51.052;9.850;2024-03-23T08:37:06;97775.45;;;5.91;76.66
77323;BME280;66384;51.052;9.850;2024-03-23T08:39:35;97783.52;;;5.98;76.59
77323;BME280;66384;51.052;9.850;2024-03-23T08:42:07;97788.80;;;6.03;76.41
77323;BME280;66384;51.052;9.850;2024-03-23T08:44:39;97788.11;;;6.09;75.90
77323;BME280;66384;51.052;9.850;2024-03-23T08:47:10;97786.88;;;6.13;75.78
77323;BME280;66384;51.052;9.850;2024-03-23T08:49:41;97791.20;;;6.22;75.60
77323;BME280;66384;51.052;9.850;2024-03-23T08:52:12;97791.25;;;6.23;75.17
77323;BME280;66384;51.052;9.850;2024-03-23T08:54:43;97787.91;;;6.26;75.53
77323;BME280;66384;51.052;9.850;2024-03-23T08:57:15;97791.89;;;6.27;75.51
77323;BME280;66384;51.052;9.850;2024-03-23T08:59:46;97796.54;;;6.29;75.32
77323;BME280;66384;51.052;9.850;2024-03-23T09:02:18;97806.23;;;6.33;75.25
77323;BME280;66384;51.052;9.850;2024-03-23T09:04:48;97805.12;;;6.36;75.20
77323;BME280;66384;51.052;9.850;2024-03-23T09:07:20;97815.33;;;6.41;75.41
77323;BME280;66384;51.052;9.850;2024-03-23T09:09:51;97822.84;;;6.41;75.52
77323;BME280;66384;51.052;9.850;2024-03-23T09:12:22;97833.70;;;6.38;75.62
77323;BME280;66384;51.052;9.850;2024-03-23T09:14:54;97838.40;;;6.35;75.77
77323;BME280;66384;51.052;9.850;2024-03-23T09:17:25;97847.75;;;6.34;75.72
77323;BME280;66384;51.052;9.850;2024-03-23T09:19:56;97847.46;;;6.30;75.41
77323;BME280;66384;51.052;9.850;2024-03-23T09:22:27;97847.05;;;6.22;74.75
77323;BME280;66384;51.052;9.850;2024-03-23T09:24:58;97839.17;;;6.15;74.85
77323;BME280;66384;51.052;9.850;2024-03-23T09:27:28;97835.65;;;6.12;74.92
77323;BME280;66384;51.052;9.850;2024-03-23T09:29:59;97839.39;;;6.11;74.95
77323;BME280;66384;51.052;9.850;2024-03-23T09:32:30;97845.66;;;6.10;75.11
77323;BME280;66384;51.052;9.850;2024-03-23T09:34:59;97847.45;;;6.07;74.84
77323;BME280;66384;51.052;9.850;2024-03-23T09:37:30;97844.35;;;6.05;75.15
77323;BME280;66384;51.052;9.850;2024-03-23T09:40:01;97846.77;;;6.07;75.19
77323;BME280;66384;51.052;9.850;2024-03-23T09:42:33;97848.85;;;6.08;75.15
77323;BME280;66384;51.052;9.850;2024-03-23T09:45:06;97850.91;;;6.09;75.27
77323;BME280;66384;51.052;9.850;2024-03-23T09:47:41;97849.56;;;6.09;75.60
77323;BME280;66384;51.052;9.850;2024-03-23T09:50:15;97844.17;;;6.11;75.67
77323;BME280;66384;51.052;9.850;2024-03-23T09:52:46;97846.70;;;6.16;75.62
77323;BME280;66384;51.052;9.850;2024-03-23T09:55:18;97849.67;;;6.18;75.57
77323;BME280;66384;51.052;9.850;2024-03-23T09:57:48;97850.27;;;6.16;75.39
77323;BME280;66384;51.052;9.850;2024-03-23T10:00:20;97844.58;;;6.13;75.37
77323;BME280;66384;51.052;9.850;2024-03-23T10:02:52;97841.58;;;6.10;75.73
77323;BME280;66384;51.052;9.850;2024-03-23T10:05:26;97843.78;;;6.09;75.91
77323;BME280;66384;51.052;9.850;2024-03-23T10:08:19;97848.35;;;6.09;76.03
77323;BME280;66384;51.052;9.850;2024-03-23T10:10:51;97856.83;;;6.12;76.50
77323;BME280;66384;51.052;9.850;2024-03-23T10:13:29;97849.98;;;6.17;76.49
77323;BME280;66384;51.052;9.850;2024-03-23T10:16:00;97855.36;;;6.20;76.16
77323;BME280;66384;51.052;9.850;2024-03-23T10:18:31;97856.11;;;6.22;75.97
77323;BME280;66384;51.052;9.850;2024-03-23T10:21:11;97858.20;;;6.24;75.33
77323;BME280;66384;51.052;9.850;2024-03-23T10:23:44;97858.95;;;6.26;75.21
77323;BME280;66384;51.052;9.850;2024-03-23T10:26:25;97856.44;;;6.33;75.19
77323;BME280;66384;51.052;9.850;2024-03-23T10:28:58;97849.43;;;6.45;74.67
77323;BME280;66384;51.052;9.850;2024-03-23T10:31:31;97842.08;;;6.57;74.61
77323;BME280;66384;51.052;9.850;2024-03-23T10:34:03;97839.22;;;6.71;74.61
77323;BME280;66384;51.052;9.850;2024-03-23T10:36:35;97835.54;;;6.87;74.73
77323;BME280;66384;51.052;9.850;2024-03-23T10:39:11;97836.42;;;7.00;74.54
77323;BME280;66384;51.052;9.850;2024-03-23T10:41:49;97837.81;;;7.08;72.56
77323;BME280;66384;51.052;9.850;2024-03-23T10:44:21;97835.58;;;7.14;72.95
77323;BME280;66384;51.052;9.850;2024-03-23T10:47:00;97835.41;;;7.28;73.74
77323;BME280;66384;51.052;9.850;2024-03-23T10:49:32;97842.20;;;7.39;72.95
77323;BME280;66384;51.052;9.850;2024-03-23T10:52:04;97846.89;;;7.56;72.11
77323;BME280;66384;51.052;9.850;2024-03-23T10:54:35;97843.05;;;7.68;70.08
77323;BME280;66384;51.052;9.850;2024-03-23T10:57:11;97842.57;;;7.76;70.33
77323;BME280;66384;51.052;9.850;2024-03-23T10:59:44;97841.99;;;7.88;70.01
77323;BME280;66384;51.052;9.850;2024-03-23T11:02:21;97840.95;;;8.03;69.58
77323;BME280;66384;51.052;9.850;2024-03-23T11:04:52;97839.79;;;8.12;68.36
77323;BME280;66384;51.052;9.850;2024-03-23T11:07:31;97832.17;;;8.24;67.27
77323;BME280;66384;51.052;9.850;2024-03-23T11:10:02;97828.73;;;8.32;66.22
77323;BME280;66384;51.052;9.850;2024-03-23T11:12:53;97825.89;;;8.35;65.11
77323;BME280;66384;51.052;9.850;2024-03-23T11:15:23;97829.30;;;8.34;65.48
77323;BME280;66384;51.052;9.850;2024-03-23T11:18:07;97826.39;;;8.34;64.95
77323;BME280;66384;51.052;9.850;2024-03-23T11:20:39;97823.52;;;8.42;64.41
77323;BME280;66384;51.052;9.850;2024-03-23T11:23:28;97821.09;;;8.50;64.27
77323;BME280;66384;51.052;9.850;2024-03-23T11:25:59;97821.67;;;8.62;64.89
77323;BME280;66384;51.052;9.850;2024-03-23T11:28:31;97826.73;;;8.75;64.15
77323;BME280;66384;51.052;9.850;2024-03-23T11:31:03;97822.92;;;8.82;62.85
77323;BME280;66384;51.052;9.850;2024-03-23T11:33:39;97817.90;;;8.89;61.96
77323;BME280;66384;51.052;9.850;2024-03-23T11:36:10;97813.58;;;8.87;61.50
77323;BME280;66384;51.052;9.850;2024-03-23T11:38:49;97808.51;;;8.81;61.08
77323;BME280;66384;51.052;9.850;2024-03-23T11:41:19;97799.87;;;8.78;61.22
77323;BME280;66384;51.052;9.850;2024-03-23T11:43:48;97793.52;;;8.79;61.88
77323;BME280;66384;51.052;9.850;2024-03-23T11:46:24;97791.08;;;8.84;62.30
77323;BME280;66384;51.052;9.850;2024-03-23T11:48:57;97789.51;;;8.93;60.91
77323;BME280;66384;51.052;9.850;2024-03-23T11:51:27;97790.70;;;8.92;59.24
77323;BME280;66384;51.052;9.850;2024-03-23T11:54:10;97780.27;;;8.85;59.15
77323;BME280;66384;51.052;9.850;2024-03-23T11:56:41;97786.83;;;8.77;60.40
77323;BME280;66384;51.052;9.850;2024-03-23T11:59:37;97790.88;;;8.74;60.03
77323;BME280;66384;51.052;9.850;2024-03-23T12:02:09;97784.75;;;8.68;60.61
77323;BME280;66384;51.052;9.850;2024-03-23T12:04:41;97780.65;;;8.68;61.30
77323;BME280;66384;51.052;9.850;2024-03-23T12:07:14;97774.37;;;8.71;60.34
77323;BME280;66384;51.052;9.850;2024-03-23T12:10:01;97763.70;;;8.79;59.70
77323;BME280;66384;51.052;9.850;2024-03-23T12:12:34;97764.19;;;8.86;58.87
77323;BME280;66384;51.052;9.850;2024-03-23T12:15:06;97763.36;;;8.89;57.61
77323;BME280;66384;51.052;9.850;2024-03-23T12:17:38;97764.73;;;8.89;57.19
77323;BME280;66384;51.052;9.850;2024-03-23T12:20:10;97766.27;;;8.87;56.05
77323;BME280;66384;51.052;9.850;2024-03-23T12:22:41;97766.06;;;8.86;56.24
77323;BME280;66384;51.052;9.850;2024-03-23T12:25:12;97778.96;;;8.88;56.47
77323;BME280;66384;51.052;9.850;2024-03-23T12:27:44;97787.77;;;8.82;55.31
77323;BME280;66384;51.052;9.850;2024-03-23T12:30:15;97804.73;;;8.72;55.73
77323;BME280;66384;51.052;9.850;2024-03-23T12:32:47;97826.02;;;8.65;58.28
77323;BME280;66384;51.052;9.850;2024-03-23T12:35:19;97832.56;;;8.49;59.99
77323;BME280;66384;51.052;9.850;2024-03-23T12:37:50;97841.04;;;8.22;61.40
77323;BME280;66384;51.052;9.850;2024-03-23T12:40:20;97835.77;;;7.93;62.04
77323;BME280;66384;51.052;9.850;2024-03-23T12:42:51;97840.94;;;7.64;63.27
77323;BME280;66384;51.052;9.850;2024-03-23T12:45:21;97841.52;;;7.40;64.71
77323;BME280;66384;51.052;9.850;2024-03-23T12:47:52;97836.25;;;7.20;65.29
77323;BME280;66384;51.052;9.850;2024-03-23T12:50:23;97832.42;;;7.11;66.33
77323;BME280;66384;51.052;9.850;2024-03-23T12:52:55;97823.98;;;7.16;67.33
77323;BME280;66384;51.052;9.850;2024-03-23T12:55:26;97816.11;;;7.22;67.70
77323;BME280;66384;51.052;9.850;2024-03-23T12:57:56;97812.77;;;7.32;67.92
77323;BME280;66384;51.052;9.850;2024-03-23T13:00:27;97808.75;;;7.43;67.05
77323;BME280;66384;51.052;9.850;2024-03-23T13:02:59;97808.20;;;7.56;67.35
77323;BME280;66384;51.052;9.850;2024-03-23T13:05:30;97808.05;;;7.71;66.23
77323;BME280;66384;51.052;9.850;2024-03-23T13:08:01;97810.88;;;7.90;66.07
77323;BME280;66384;51.052;9.850;2024-03-23T13:10:33;97808.70;;;8.08;64.47
77323;BME280;66384;51.052;9.850;2024-03-23T13:13:05;97801.05;;;8.19;63.44
77323;BME280;66384;51.052;9.850;2024-03-23T13:15:37;97799.95;;;8.32;63.52
77323;BME280;66384;51.052;9.850;2024-03-23T13:18:08;97799.96;;;8.47;63.47
77323;BME280;66384;51.052;9.850;2024-03-23T13:20:40;97794.50;;;8.66;63.33
77323;BME280;66384;51.052;9.850;2024-03-23T13:23:10;97789.39;;;8.86;63.56
77323;BME280;66384;51.052;9.850;2024-03-23T13:25:41;97789.64;;;9.10;63.49
77323;BME280;66384;51.052;9.850;2024-03-23T13:28:20;97787.35;;;9.27;62.41
77323;BME280;66384;51.052;9.850;2024-03-23T13:30:55;97780.89;;;9.41;62.01
77323;BME280;66384;51.052;9.850;2024-03-23T13:33:26;97778.10;;;9.60;61.82
77323;BME280;66384;51.052;9.850;2024-03-23T13:35:58;97777.52;;;9.78;60.75
77323;BME280;66384;51.052;9.850;2024-03-23T13:38:29;97774.75;;;9.90;60.68
77323;BME280;66384;51.052;9.850;2024-03-23T13:41:01;97781.17;;;9.94;60.01
77323;BME280;66384;51.052;9.850;2024-03-23T13:43:34;97780.27;;;9.91;59.24
77323;BME280;66384;51.052;9.850;2024-03-23T13:46:05;97783.59;;;9.82;59.67
77323;BME280;66384;51.052;9.850;2024-03-23T13:48:36;97787.02;;;9.73;58.87
77323;BME280;66384;51.052;9.850;2024-03-23T13:51:07;97787.61;;;9.54;57.68
77323;BME280;66384;51.052;9.850;2024-03-23T13:53:41;97794.81;;;9.32;58.03
77323;BME280;66384;51.052;9.850;2024-03-23T13:56:14;97789.98;;;9.10;58.68
77323;BME280;66384;51.052;9.850;2024-03-23T13:58:45;97785.08;;;8.94;59.23
77323;BME280;66384;51.052;9.850;2024-03-23T14:01:17;97796.10;;;8.78;59.82
77323;BME280;66384;51.052;9.850;2024-03-23T14:03:48;97850.27;;;8.60;60.54
77323;BME280;66384;51.052;9.850;2024-03-23T14:06:20;97855.71;;;8.27;63.04
77323;BME280;66384;51.052;9.850;2024-03-23T14:08:51;97858.61;;;7.88;64.46
77323;BME280;66384;51.052;9.850;2024-03-23T14:11:22;97859.55;;;7.56;65.91
77323;BME280;66384;51.052;9.850;2024-03-23T14:13:53;97851.73;;;7.38;66.60
77323;BME280;66384;51.052;9.850;2024-03-23T14:16:25;97850.60;;;7.47;68.09
77323;BME280;66384;51.052;9.850;2024-03-23T14:18:54;97846.11;;;7.67;68.29
77323;BME280;66384;51.052;9.850;2024-03-23T14:21:26;97841.88;;;7.90;67.87
77323;BME280;66384;51.052;9.850;2024-03-23T14:23:57;97840.10;;;8.10;67.59
77323;BME280;66384;51.052;9.850;2024-03-23T14:26:28;97835.41;;;8.31;68.08
77323;BME280;66384;51.052;9.850;2024-03-23T14:29:00;97833.44;;;8.51;66.91